Time;durP1;ratioP1;P1;durP2;ratioP2;P2;SDS_P1;SDS_P2;PMS_P1;PMS_P2;Temp;Humidity;BMP_temperature;BMP_pressure;BME280_temperature;BME280_humidity;BME280_pressure;Samples;Min_cycle;Max_cycle;Signal;HPM_P1;HPM_P2
2023/03/06 00:00:24;;;;;;;18.15;9.23;;;;;;;1.05;89.28;96483.28;5067293;28;20032;-59
2023/03/06 00:02:51;;;;;;;17.73;10.43;;;;;;;0.84;90.97;96485.22;5073079;28;20040;-60
2023/03/06 00:05:18;;;;;;;15.57;8.23;;;;;;;0.88;90.59;96486.41;5068526;28;20138;-60
2023/03/06 00:07:44;;;;;;;16.52;7.78;;;;;;;0.99;90.48;96481.47;5067192;28;20464;-60
2023/03/06 00:10:16;;;;;;;16.55;8.05;;;;;;;1.09;89.28;96481.81;5069872;28;20139;-59
2023/03/06 00:12:43;;;;;;;16.42;7.90;;;;;;;1.19;88.47;96484.03;5067892;28;20140;-60
2023/03/06 00:15:11;;;;;;;14.10;6.88;;;;;;;1.13;88.92;96483.03;5074837;28;20037;-60
2023/03/06 00:17:38;;;;;;;15.15;7.85;;;;;;;1.15;89.05;96478.28;5073947;28;20041;-60
2023/03/06 00:20:06;;;;;;;16.65;8.93;;;;;;;0.96;89.43;96476.56;5075768;28;20085;-60
2023/03/06 00:22:32;;;;;;;15.38;7.93;;;;;;;0.76;91.15;96466.78;5076356;28;20051;-60
2023/03/06 00:24:59;;;;;;;18.70;9.45;;;;;;;0.60;91.86;96468.09;5074647;28;20073;-59
2023/03/06 00:27:25;;;;;;;18.35;8.48;;;;;;;0.60;92.64;96466.25;5078970;28;20047;-58
2023/03/06 00:29:56;;;;;;;16.70;8.65;;;;;;;0.52;92.90;96469.94;5077658;28;20044;-59
2023/03/06 00:32:23;;;;;;;16.67;8.38;;;;;;;0.50;92.66;96464.03;5075209;28;20505;-60
2023/03/06 00:34:51;;;;;;;17.40;8.30;;;;;;;0.48;93.12;96459.94;5079051;28;20040;-59
2023/03/06 00:37:18;;;;;;;13.02;7.70;;;;;;;0.49;93.75;96453.56;5069255;28;20040;-60
2023/03/06 00:39:45;;;;;;;14.65;7.70;;;;;;;0.46;93.30;96446.81;5067454;28;20115;-60
2023/03/06 00:42:12;;;;;;;17.52;9.13;;;;;;;0.37;93.48;96440.91;5076389;28;20219;-60
2023/03/06 00:44:38;;;;;;;15.90;7.93;;;;;;;0.32;93.99;96445.22;5077052;28;20048;-60
2023/03/06 00:47:05;;;;;;;15.15;7.55;;;;;;;0.60;92.16;96450.28;5061587;28;20093;-60
2023/03/06 00:49:32;;;;;;;15.48;8.40;;;;;;;0.68;90.60;96448.38;5072350;28;20542;-60
2023/03/06 00:51:58;;;;;;;13.95;7.30;;;;;;;0.80;90.22;96444.03;5067955;28;20048;-60
2023/03/06 00:54:25;;;;;;;15.80;8.40;;;;;;;0.74;90.45;96439.56;5077098;28;20047;-61
2023/03/06 00:56:51;;;;;;;15.80;7.60;;;;;;;0.54;91.89;96436.94;5074789;28;20039;-60
2023/03/06 00:59:18;;;;;;;17.48;7.55;;;;;;;0.50;92.77;96440.06;5077642;28;20040;-60
2023/03/06 01:01:45;;;;;;;14.20;7.13;;;;;;;0.45;92.82;96433.72;5073771;28;20040;-60
2023/03/06 01:04:13;;;;;;;14.05;6.82;;;;;;;0.54;91.73;96434.28;5068229;28;20036;-60
2023/03/06 01:06:40;;;;;;;13.77;6.88;;;;;;;0.56;91.44;96418.91;5076277;28;20163;-60
2023/03/06 01:09:06;;;;;;;15.27;7.55;;;;;;;0.74;90.80;96434.22;5074180;28;20059;-60
2023/03/06 01:11:33;;;;;;;14.13;6.45;;;;;;;0.89;89.63;96428.63;5070453;28;20044;-61
2023/03/06 01:13:59;;;;;;;14.32;7.60;;;;;;;0.97;87.65;96422.22;5073950;28;20036;-61
2023/03/06 01:16:26;;;;;;;15.23;7.45;;;;;;;0.75;89.49;96417.19;5074061;28;20055;-60
2023/03/06 01:18:52;;;;;;;16.02;7.32;;;;;;;0.66;90.39;96418.47;5068257;28;20078;-59
2023/03/06 01:21:19;;;;;;;13.40;6.32;;;;;;;0.69;90.44;96418.03;5063922;28;20571;-60
2023/03/06 01:23:46;;;;;;;14.93;7.35;;;;;;;0.61;90.73;96419.94;5069423;28;20676;-59
2023/03/06 01:26:13;;;;;;;14.77;7.10;;;;;;;0.47;92.14;96416.50;5069781;28;20039;-60
2023/03/06 01:28:39;;;;;;;13.93;7.75;;;;;;;0.40;92.50;96413.03;5067023;28;20106;-60
2023/03/06 01:31:08;;;;;;;13.25;7.13;;;;;;;0.23;94.38;96402.03;5070266;28;20043;-60
2023/03/06 01:33:35;;;;;;;14.95;8.35;;;;;;;0.30;94.20;96402.00;5078628;28;20040;-59
2023/03/06 01:36:07;;;;;;;14.63;7.40;;;;;;;0.33;93.81;96404.25;5073501;28;20037;-59
2023/03/06 01:38:34;;;;;;;15.38;7.00;;;;;;;0.41;93.82;96404.03;5067984;28;20049;-60
2023/03/06 01:41:02;;;;;;;14.38;7.13;;;;;;;0.45;93.39;96407.09;5073243;28;20048;-60
2023/03/06 01:43:37;;;;;;;15.43;6.85;;;;;;;0.48;90.99;96404.81;5074031;28;20051;-61
2023/03/06 01:46:31;;;;;;;11.45;6.30;;;;;;;0.48;92.67;96398.69;5078145;28;20076;-60
2023/03/06 01:49:22;;;;;;;11.55;5.85;;;;;;;0.22;95.07;96387.91;5075208;28;20039;-60
2023/03/06 01:52:07;;;;;;;13.60;6.32;;;;;;;-0.02;98.38;96379.59;5073578;28;20419;-60
2023/03/06 01:54:39;;;;;;;13.25;6.75;;;;;;;-0.01;100.00;96375.06;5072448;28;20040;-60
2023/03/06 01:57:10;;;;;;;;;;;;;;;0.06;98.77;96370.56;5077344;28;20040;-60
2023/03/06 01:59:39;;;;;;;13.57;6.63;;;;;;;0.14;96.78;96368.69;5074640;28;19959;-59
2023/03/06 02:02:08;;;;;;;14.00;7.53;;;;;;;0.06;95.42;96370.56;5074760;28;20036;-59
2023/03/06 02:04:38;;;;;;;12.40;7.10;;;;;;;-0.12;97.45;96367.75;5077582;28;20036;-59
2023/03/06 02:07:06;;;;;;;15.68;7.03;;;;;;;-0.16;98.59;96370.81;5071051;28;20041;-60
2023/03/06 02:09:34;;;;;;;14.48;7.05;;;;;;;-0.12;97.30;96365.09;5075312;28;20047;-60
2023/03/06 02:12:05;;;;;;;14.02;6.03;;;;;;;-0.09;96.14;96362.81;5070758;28;20700;-61
2023/03/06 02:14:32;;;;;;;;;;;;;;;-0.02;95.20;96360.97;5072779;28;20176;-60
2023/03/06 02:16:59;;;;;;;13.75;6.70;;;;;;;-0.12;96.72;96352.56;5077673;28;19998;-60
2023/03/06 02:20:11;;;;;;;16.60;7.35;;;;;;;-0.20;97.42;96347.47;5073869;28;20047;-59
2023/03/06 02:22:57;;;;;;;12.50;5.88;;;;;;;-0.08;96.54;96345.00;5065817;28;20067;-60
2023/03/06 02:25:36;;;;;;;11.82;6.20;;;;;;;0.18;94.23;96341.44;5071434;28;20577;-60
2023/03/06 02:28:05;;;;;;;13.73;7.03;;;;;;;-0.11;96.38;96337.44;5067539;28;20067;-60
2023/03/06 02:30:32;;;;;;;12.68;6.22;;;;;;;-0.27;98.28;96328.88;5069943;28;20044;-59
2023/03/06 02:33:00;;;;;;;12.57;6.80;;;;;;;-0.46;98.71;96344.69;5080162;28;20418;-60
2023/03/06 02:35:32;;;;;;;11.75;6.22;;;;;;;-0.60;99.79;96343.88;5071128;28;20086;-59
2023/03/06 02:38:07;;;;;;;13.85;6.80;;;;;;;-0.72;99.77;96338.34;5077204;28;20050;-60
2023/03/06 02:40:34;;;;;;;15.63;7.13;;;;;;;-0.52;99.15;96340.16;5075032;28;20039;-60
2023/03/06 02:43:00;;;;;;;11.75;6.70;;;;;;;-0.76;99.43;96339.78;5062931;28;20101;-59
2023/03/06 02:45:33;;;;;;;16.52;7.65;;;;;;;-0.82;100.00;96338.78;5082562;28;20063;-59
2023/03/06 02:48:00;;;;;;;12.70;6.93;;;;;;;-0.81;99.93;96340.41;5065869;28;20053;-61
2023/03/06 02:50:28;;;;;;;14.40;7.10;;;;;;;-0.82;100.00;96335.28;5066556;28;20210;-59
2023/03/06 02:52:55;;;;;;;17.55;7.18;;;;;;;-0.83;100.00;96326.50;5059870;28;20044;-60
2023/03/06 02:55:22;;;;;;;13.30;7.13;;;;;;;-0.86;100.00;96320.75;5068283;28;20048;-59
2023/03/06 02:57:49;;;;;;;16.73;7.00;;;;;;;-0.93;100.00;96326.91;5067167;28;20040;-59
2023/03/06 03:00:16;;;;;;;14.93;7.30;;;;;;;-0.82;100.00;96322.00;5064841;28;20508;-60
2023/03/06 03:02:43;;;;;;;16.95;8.07;;;;;;;-0.63;100.00;96327.53;5071148;28;20114;-60
2023/03/06 03:05:10;;;;;;;14.68;6.85;;;;;;;-0.63;98.60;96325.66;5070980;28;20564;-60
2023/03/06 03:07:40;;;;;;;15.00;7.00;;;;;;;-0.54;97.43;96327.09;5066535;28;20040;-60
2023/03/06 03:10:08;;;;;;;14.48;6.90;;;;;;;-0.57;98.49;96319.53;5068160;28;20110;-61
2023/03/06 03:12:34;;;;;;;11.55;6.35;;;;;;;-0.70;99.26;96320.34;5073936;28;20048;-59
2023/03/06 03:15:02;;;;;;;15.82;7.68;;;;;;;-0.79;100.00;96324.25;5069146;28;20043;-60
2023/03/06 03:17:29;;;;;;;14.23;7.97;;;;;;;-0.90;100.00;96316.88;5069858;28;20041;-61
2023/03/06 03:19:55;;;;;;;18.60;7.45;;;;;;;-0.98;100.00;96308.13;5072252;28;20133;-60
2023/03/06 03:22:22;;;;;;;12.95;6.50;;;;;;;-1.00;100.00;96310.13;5067689;28;20163;-60
2023/03/06 03:24:49;;;;;;;14.32;7.07;;;;;;;-0.86;100.00;96305.66;5067263;28;20032;-60
2023/03/06 03:27:16;;;;;;;13.52;6.95;;;;;;;-0.63;100.00;96303.59;5065588;28;20036;-60
2023/03/06 03:29:42;;;;;;;15.80;6.95;;;;;;;-0.76;99.33;96304.41;5061059;28;20048;-60
2023/03/06 03:32:09;;;;;;;15.30;7.07;;;;;;;-0.77;100.00;96302.78;5074094;28;20124;-60
2023/03/06 03:34:36;;;;;;;13.85;7.00;;;;;;;-0.70;99.52;96293.75;5069311;28;20059;-60
2023/03/06 03:37:03;;;;;;;13.32;7.10;;;;;;;-0.74;99.52;96299.72;5070337;28;20118;-60
2023/03/06 03:39:29;;;;;;;11.90;6.43;;;;;;;-0.61;99.21;96298.88;5067460;28;20500;-60
2023/03/06 03:41:56;;;;;;;13.65;7.22;;;;;;;-0.59;98.52;96287.00;5076344;28;20458;-60
2023/03/06 03:44:22;;;;;;;14.57;7.85;;;;;;;-0.53;97.63;96296.81;5071475;28;20126;-59
2023/03/06 03:46:49;;;;;;;14.95;7.63;;;;;;;-0.71;98.70;96293.97;5080405;28;20526;-60
2023/03/06 03:49:19;;;;;;;19.88;7.78;;;;;;;-0.73;98.91;96299.50;5077495;28;20044;-59
2023/03/06 03:51:46;;;;;;;13.88;7.07;;;;;;;-0.69;99.12;96291.94;5078314;28;20507;-59
2023/03/06 03:54:13;;;;;;;13.55;7.13;;;;;;;-0.54;97.50;96292.53;5068343;28;20410;-60
2023/03/06 03:56:43;;;;;;;15.23;7.13;;;;;;;-0.54;97.51;96294.38;5072130;28;20579;-59
2023/03/06 03:59:24;;;;;;;17.25;7.82;;;;;;;-0.69;98.07;96298.09;5078366;28;20059;-60
2023/03/06 04:02:17;;;;;;;15.98;7.55;;;;;;;-0.75;99.40;96280.28;5076784;28;20135;-60
2023/03/06 04:04:51;;;;;;;13.52;7.32;;;;;;;-0.74;98.42;96276.59;5077074;28;20070;-60
2023/03/06 04:07:18;;;;;;;13.00;6.57;;;;;;;-0.68;98.89;96275.78;5075176;28;20507;-59
2023/03/06 04:09:45;;;;;;;12.15;7.10;;;;;;;-0.58;97.19;96282.50;5075714;28;20603;-60
2023/03/06 04:12:11;;;;;;;17.40;7.68;;;;;;;-0.49;96.30;96277.78;5075703;28;20619;-60
2023/03/06 04:14:38;;;;;;;16.30;6.45;;;;;;;-0.37;94.84;96268.13;5069048;28;20048;-58
2023/03/06 04:17:05;;;;;;;13.32;6.65;;;;;;;-0.40;95.46;96274.69;5073198;28;20407;-59
2023/03/06 04:19:32;;;;;;;11.57;5.85;;;;;;;-0.29;95.27;96267.88;5074980;28;20048;-59
2023/03/06 04:22:01;;;;;;;13.73;5.85;;;;;;;-0.13;93.82;96268.47;5068861;28;20101;-60
2023/03/06 04:24:29;;;;;;;13.43;6.30;;;;;;;0.02;91.60;96256.72;5073868;28;20097;-59
2023/03/06 04:26:56;;;;;;;13.65;6.18;;;;;;;-0.01;92.10;96256.13;5069984;28;20099;-58
2023/03/06 04:29:23;;;;;;;13.75;6.90;;;;;;;-0.38;95.49;96258.50;5075801;28;20518;-59
2023/03/06 04:31:49;;;;;;;13.02;7.40;;;;;;;-0.61;97.28;96251.84;5072771;28;20040;-58
2023/03/06 04:34:16;;;;;;;13.52;7.00;;;;;;;-0.73;98.21;96256.97;5072126;28;20040;-60
2023/03/06 04:36:44;;;;;;;14.77;6.72;;;;;;;-0.73;97.97;96250.84;5089200;28;20047;-61
2023/03/06 04:39:12;;;;;;;16.58;7.80;;;;;;;-0.64;96.88;96248.75;5071195;28;20498;-60
2023/03/06 04:41:40;;;;;;;10.95;6.13;;;;;;;-0.56;96.96;96253.84;5074499;28;20097;-60
2023/03/06 04:44:07;;;;;;;12.32;6.38;;;;;;;-0.45;95.96;96255.06;5076145;28;20044;-60
2023/03/06 04:46:34;;;;;;;11.85;6.25;;;;;;;-0.43;95.00;96245.88;5074129;28;20396;-60
2023/03/06 04:49:01;;;;;;;11.82;5.82;;;;;;;-0.34;94.79;96242.97;5069946;28;20496;-59
2023/03/06 04:51:28;;;;;;;13.25;6.57;;;;;;;-0.30;93.97;96242.31;5072983;28;20036;-60
2023/03/06 04:53:55;;;;;;;13.65;6.47;;;;;;;-0.60;95.97;96244.66;5079211;28;20044;-59
2023/03/06 04:56:22;;;;;;;16.88;7.75;;;;;;;-0.76;97.83;96245.94;5071188;28;20044;-60
2023/03/06 04:58:48;;;;;;;13.85;7.07;;;;;;;-0.97;98.74;96245.97;5079127;28;20035;-60
2023/03/06 05:01:15;;;;;;;14.25;7.22;;;;;;;-0.83;99.19;96252.09;5074318;28;20036;-60
2023/03/06 05:03:41;;;;;;;14.07;7.22;;;;;;;-0.70;97.03;96239.78;5068767;28;20060;-59
2023/03/06 05:06:08;;;;;;;14.77;7.25;;;;;;;-0.70;96.72;96245.13;5078453;28;20047;-59
2023/03/06 05:08:35;;;;;;;13.25;6.75;;;;;;;-0.54;96.32;96243.84;5070876;28;20045;-59
2023/03/06 05:11:01;;;;;;;10.82;6.30;;;;;;;-0.67;96.78;96237.53;5069487;28;20670;-60
2023/03/06 05:13:28;;;;;;;15.93;6.55;;;;;;;-0.82;97.96;96240.41;5075321;28;20476;-59
2023/03/06 05:16:00;;;;;;;13.63;6.55;;;;;;;-0.88;97.98;96240.44;5072772;28;20040;-60
2023/03/06 05:18:27;;;;;;;11.20;6.40;;;;;;;-1.05;99.07;96249.66;5076940;28;20895;-59
2023/03/06 05:20:58;;;;;;;14.73;6.47;;;;;;;-1.04;99.38;96245.16;5080512;28;20395;-60
2023/03/06 05:23:29;;;;;;;16.48;7.90;;;;;;;-1.08;100.00;96251.88;5073924;28;20044;-59
2023/03/06 05:25:56;;;;;;;18.50;8.32;;;;;;;-1.11;100.00;96247.81;5076502;28;20517;-59
2023/03/06 05:28:24;;;;;;;13.75;7.00;;;;;;;-1.05;100.00;96246.16;5081571;28;20055;-60
2023/03/06 05:30:51;;;;;;;20.25;8.65;;;;;;;-1.02;100.00;96237.81;5072515;28;20056;-60
2023/03/06 05:33:17;;;;;;;14.60;7.35;;;;;;;-1.05;100.00;96236.38;5070334;28;20050;-61
2023/03/06 05:35:48;;;;;;;15.70;8.30;;;;;;;-1.01;100.00;96230.63;5075894;28;20040;-60
2023/03/06 05:38:16;;;;;;;15.07;7.28;;;;;;;-0.96;99.55;96228.19;5067572;28;20499;-60
2023/03/06 05:40:43;;;;;;;13.80;7.28;;;;;;;-0.83;99.08;96230.00;5075830;28;20040;-60
2023/03/06 05:43:10;;;;;;;16.27;7.55;;;;;;;-0.68;97.75;96227.94;5071354;28;20040;-58
2023/03/06 05:45:38;;;;;;;15.00;6.60;;;;;;;-0.59;97.78;96222.38;5071989;28;20518;-58
2023/03/06 05:48:05;;;;;;;12.27;6.82;;;;;;;-0.43;95.94;96226.41;5071554;28;20040;-59
2023/03/06 05:50:32;;;;;;;13.90;7.03;;;;;;;-0.34;94.14;96233.13;5068592;28;20225;-60
2023/03/06 05:52:59;;;;;;;18.15;7.88;;;;;;;-0.28;94.93;96223.50;5078875;28;20032;-58
2023/03/06 05:55:26;;;;;;;15.32;7.40;;;;;;;-0.22;94.58;96224.50;5064543;28;20120;-59
2023/03/06 05:57:52;;;;;;;16.65;7.18;;;;;;;-0.05;93.24;96219.50;5078008;28;20040;-58
2023/03/06 06:00:20;;;;;;;14.65;6.20;;;;;;;0.10;91.88;96212.06;5076676;28;20079;-58
2023/03/06 06:02:47;;;;;;;15.32;7.20;;;;;;;0.11;91.17;96212.88;5081909;28;20122;-58
2023/03/06 06:05:14;;;;;;;14.07;7.28;;;;;;;0.13;91.07;96216.13;5077589;28;20074;-57
2023/03/06 06:07:41;;;;;;;18.38;7.43;;;;;;;0.13;90.83;96216.13;5077822;28;20086;-58
2023/03/06 06:10:09;;;;;;;13.18;7.22;;;;;;;0.21;90.68;96218.53;5072614;28;20037;-58
2023/03/06 06:12:36;;;;;;;14.52;7.45;;;;;;;0.27;89.72;96221.38;5075055;28;20048;-59
2023/03/06 06:15:03;;;;;;;15.57;7.70;;;;;;;0.30;89.46;96216.44;5077031;28;20060;-59
2023/03/06 06:17:30;;;;;;;17.67;7.45;;;;;;;0.49;87.33;96221.84;5080618;28;20078;-59
2023/03/06 06:19:56;;;;;;;14.27;6.85;;;;;;;0.55;87.37;96222.84;5075236;28;20423;-59
2023/03/06 06:22:23;;;;;;;15.15;7.70;;;;;;;0.66;86.83;96223.97;5076948;28;20671;-59
2023/03/06 06:24:49;;;;;;;16.77;8.38;;;;;;;0.77;86.07;96226.75;5071663;28;20517;-59
2023/03/06 06:27:16;;;;;;;16.13;7.35;;;;;;;0.84;86.03;96225.88;5076019;28;20492;-58
2023/03/06 06:29:42;;;;;;;13.60;7.93;;;;;;;0.79;85.58;96226.53;5071632;28;20094;-59
2023/03/06 06:32:09;;;;;;;17.92;7.65;;;;;;;0.90;85.34;96231.16;5073328;28;20047;-57
2023/03/06 06:34:36;;;;;;;15.25;6.85;;;;;;;0.68;85.42;96230.72;5072554;28;20055;-59
2023/03/06 06:37:02;;;;;;;17.55;8.23;;;;;;;0.67;85.98;96225.59;5084703;28;20124;-59
2023/03/06 06:39:29;;;;;;;14.07;7.85;;;;;;;0.86;85.92;96229.97;5080521;28;20052;-58
2023/03/06 06:41:55;;;;;;;13.68;6.70;;;;;;;0.95;85.27;96230.50;5080108;28;20036;-58
2023/03/06 06:44:42;;;;;;;15.85;7.75;;;;;;;0.83;85.45;96227.72;5075312;28;20423;-59
2023/03/06 06:47:09;;;;;;;16.42;7.00;;;;;;;0.80;85.43;96225.50;5074872;28;20059;-59
2023/03/06 06:49:53;;;;;;;13.35;6.38;;;;;;;0.98;84.67;96231.91;5070815;28;20040;-56
2023/03/06 06:52:21;;;;;;;14.63;6.53;;;;;;;0.91;84.69;96234.63;5074369;28;20531;-58
2023/03/06 06:54:47;;;;;;;14.30;6.80;;;;;;;0.88;84.83;96224.41;5070773;28;20149;-58
2023/03/06 06:57:14;;;;;;;15.98;6.35;;;;;;;1.02;83.34;96231.25;5076979;28;20127;-57
2023/03/06 06:59:41;;;;;;;13.65;6.60;;;;;;;1.09;83.19;96233.88;5076958;28;20044;-57
2023/03/06 07:02:11;;;;;;;13.45;7.10;;;;;;;0.96;83.62;96234.78;5065556;28;20461;-58
2023/03/06 07:04:38;;;;;;;14.38;6.05;;;;;;;0.99;83.83;96233.56;5069338;28;20044;-58
2023/03/06 07:07:14;;;;;;;11.93;5.88;;;;;;;0.93;84.08;96231.75;5075453;28;20044;-58
2023/03/06 07:09:41;;;;;;;11.15;5.97;;;;;;;1.17;83.10;96238.91;5069445;28;20043;-59
2023/03/06 07:12:08;;;;;;;14.45;7.20;;;;;;;1.20;82.68;96239.50;5072558;28;20101;-59
2023/03/06 07:14:34;;;;;;;13.50;7.22;;;;;;;1.09;83.20;96244.53;5070827;28;20109;-58
2023/03/06 07:17:01;;;;;;;13.30;6.45;;;;;;;0.90;85.03;96243.66;5078106;28;20039;-58
2023/03/06 07:19:27;;;;;;;14.80;6.00;;;;;;;0.99;84.50;96250.34;5076098;28;20044;-56
2023/03/06 07:21:54;;;;;;;12.75;6.15;;;;;;;1.10;83.42;96250.69;5074870;28;20040;-58
2023/03/06 07:24:20;;;;;;;13.13;5.97;;;;;;;1.06;84.14;96247.63;5064212;28;20039;-58
2023/03/06 07:26:47;;;;;;;12.50;6.32;;;;;;;1.21;83.82;96262.47;5067834;28;20041;-59
2023/03/06 07:29:14;;;;;;;12.40;6.05;;;;;;;1.18;84.14;96263.72;5070513;28;20097;-59
2023/03/06 07:31:41;;;;;;;17.65;7.07;;;;;;;1.07;84.51;96256.44;5073028;28;20036;-58
2023/03/06 07:34:11;;;;;;;16.77;6.38;;;;;;;1.15;84.56;96254.31;5069785;28;20049;-57
2023/03/06 07:36:39;;;;;;;14.02;6.35;;;;;;;1.15;84.97;96259.63;5074704;28;20036;-58
2023/03/06 07:39:08;;;;;;;12.23;6.80;;;;;;;1.12;85.38;96256.59;5070281;28;20040;-58
2023/03/06 07:41:35;;;;;;;14.98;6.97;;;;;;;1.15;86.11;96259.63;5076675;28;20043;-59
2023/03/06 07:44:02;;;;;;;13.55;6.95;;;;;;;1.16;85.06;96253.28;5074151;28;20048;-59
2023/03/06 07:46:28;;;;;;;12.68;6.47;;;;;;;1.31;84.78;96257.44;5068185;28;20072;-58
2023/03/06 07:48:55;;;;;;;11.90;6.50;;;;;;;1.28;85.40;96260.56;5067454;28;20174;-58
2023/03/06 07:51:21;;;;;;;13.88;7.05;;;;;;;1.32;85.04;96263.63;5064273;28;20056;-59
2023/03/06 07:53:48;;;;;;;13.25;6.15;;;;;;;1.30;85.69;96266.50;5069114;28;20045;-59
2023/03/06 07:56:15;;;;;;;13.80;6.80;;;;;;;1.30;85.60;96266.50;5068607;28;20048;-59
2023/03/06 07:58:44;;;;;;;12.43;6.60;;;;;;;1.35;85.83;96263.16;5062320;28;20044;-59
2023/03/06 08:01:17;;;;;;;12.63;6.30;;;;;;;1.60;83.52;96256.94;5075417;28;20669;-57
2023/03/06 08:03:43;;;;;;;39.83;8.65;;;;;;;1.68;84.39;96260.16;5067760;28;20072;-58
2023/03/06 08:06:19;;;;;;;14.90;7.75;;;;;;;1.43;85.47;96250.34;5073014;28;20036;-59
2023/03/06 08:08:46;;;;;;;16.13;7.53;;;;;;;1.47;86.49;96258.72;5084243;28;20059;-59
2023/03/06 08:11:15;;;;;;;14.02;7.03;;;;;;;1.57;86.09;96266.22;5080295;28;20040;-59
2023/03/06 08:13:42;;;;;;;16.42;6.47;;;;;;;1.66;85.37;96256.09;5075656;28;20086;-59
2023/03/06 08:16:10;;;;;;;14.95;6.22;;;;;;;1.65;85.49;96260.59;5083866;28;20301;-59
2023/03/06 08:18:38;;;;;;;12.88;6.45;;;;;;;1.60;86.78;96271.13;5069845;28;20040;-58
2023/03/06 08:21:12;;;;;;;15.45;7.22;;;;;;;1.63;86.17;96264.53;5074746;28;20041;-59
2023/03/06 08:23:39;;;;;;;13.80;5.97;;;;;;;1.67;86.51;96263.03;5073248;28;20044;-57
2023/03/06 08:26:09;;;;;;;16.83;6.88;;;;;;;1.67;86.64;96265.72;5084047;28;20052;-59
2023/03/06 08:28:35;;;;;;;11.60;6.50;;;;;;;1.58;86.82;96262.50;5072402;28;20032;-58
2023/03/06 08:31:11;;;;;;;15.30;7.50;;;;;;;1.47;87.52;96272.06;5075090;28;20044;-55
2023/03/06 08:33:39;;;;;;;14.50;7.10;;;;;;;1.68;87.20;96268.16;5079170;28;20036;-58
2023/03/06 08:36:06;;;;;;;12.40;6.05;;;;;;;1.59;87.19;96271.34;5071656;28;20067;-59
2023/03/06 08:38:32;;;;;;;13.40;6.97;;;;;;;1.67;87.28;96271.84;5071821;28;20515;-58
2023/03/06 08:40:59;;;;;;;21.00;6.00;;;;;;;1.84;86.31;96278.47;5078680;28;20269;-58
2023/03/06 08:43:26;;;;;;;11.70;6.03;;;;;;;1.91;86.13;96280.00;5079648;28;20029;-58
2023/03/06 08:45:54;;;;;;;12.48;6.25;;;;;;;1.97;85.67;96286.31;5072640;28;20207;-58
2023/03/06 08:48:20;;;;;;;16.33;6.78;;;;;;;1.76;85.81;96284.91;5076614;28;20418;-58
2023/03/06 08:50:47;;;;;;;14.35;6.55;;;;;;;1.81;85.51;96283.19;5084418;28;20071;-58
2023/03/06 08:53:13;;;;;;;13.60;7.38;;;;;;;1.86;85.19;96285.22;5077393;28;20045;-58
2023/03/06 08:55:40;;;;;;;11.57;6.15;;;;;;;1.74;85.86;96284.31;5084059;28;20139;-55
2023/03/06 08:58:07;;;;;;;12.35;6.20;;;;;;;1.51;87.06;96288.47;5074745;28;20040;-55
2023/03/06 09:00:35;;;;;;;13.43;7.25;;;;;;;1.52;87.19;96282.09;5080703;28;20468;-57
2023/03/06 09:03:02;;;;;;;12.05;6.82;;;;;;;1.50;88.20;96286.81;5080773;28;20032;-58
2023/03/06 09:05:29;;;;;;;11.82;6.50;;;;;;;1.51;87.99;96283.13;5077215;28;20114;-55
2023/03/06 09:07:56;;;;;;;15.73;7.40;;;;;;;1.51;89.92;96289.25;5074707;28;20039;-57
2023/03/06 09:10:24;;;;;;;14.07;7.07;;;;;;;1.56;89.86;96289.41;5086175;28;20595;-57
2023/03/06 09:12:51;;;;;;;15.20;7.88;;;;;;;1.35;89.82;96293.31;5081770;28;20044;-55
2023/03/06 09:15:21;;;;;;;13.15;7.28;;;;;;;1.55;89.39;96295.78;5081390;28;20076;-57
2023/03/06 09:17:49;;;;;;;12.10;6.88;;;;;;;1.53;89.21;96297.03;5085632;28;20047;-56
2023/03/06 09:20:17;;;;;;;13.50;6.57;;;;;;;1.59;89.05;96292.69;5079229;28;20055;-58
2023/03/06 09:22:44;;;;;;;12.30;6.47;;;;;;;1.83;87.40;96293.66;5079612;28;20347;-59
2023/03/06 09:25:19;;;;;;;13.02;6.50;;;;;;;1.72;87.66;96299.72;5081923;27;20048;-58
2023/03/06 09:27:47;;;;;;;13.85;7.47;;;;;;;1.64;88.38;96293.66;5079825;28;20052;-56
2023/03/06 09:30:27;;;;;;;12.82;6.90;;;;;;;1.66;87.21;96294.25;5075624;28;20111;-57
2023/03/06 09:32:53;;;;;;;16.25;7.00;;;;;;;1.60;87.28;96295.13;5079472;28;20571;-59
2023/03/06 09:35:20;;;;;;;13.30;7.07;;;;;;;1.80;87.16;96299.44;5080304;28;20102;-59
2023/03/06 09:37:46;;;;;;;13.18;6.55;;;;;;;1.69;86.96;96300.97;5076677;28;20639;-58
2023/03/06 09:40:51;;;;;;;14.38;7.43;;;;;;;1.71;87.14;96292.75;5077228;28;20132;-58
2023/03/06 09:43:24;;;;;;;12.70;7.10;;;;;;;1.83;86.94;96299.00;5043094;28;20044;-58
2023/03/06 09:45:51;;;;;;;15.57;7.03;;;;;;;1.90;86.45;96298.91;5079236;28;20040;-56
2023/03/06 09:48:27;;;;;;;13.80;7.45;;;;;;;1.76;86.27;96296.41;5071190;28;20132;-58
2023/03/06 09:51:01;;;;;;;12.50;6.20;;;;;;;1.83;86.22;96295.53;5070335;28;20090;-58
2023/03/06 09:53:49;;;;;;;14.23;7.57;;;;;;;1.69;86.79;96296.47;5078412;28;20044;-58
2023/03/06 09:56:21;;;;;;;15.00;6.50;;;;;;;1.73;86.52;96291.50;5075415;28;20044;-58
2023/03/06 09:58:58;;;;;;;10.80;6.13;;;;;;;1.88;85.96;96301.81;5079448;28;20111;-58
2023/03/06 10:01:33;;;;;;;13.15;6.15;;;;;;;1.81;85.40;96290.41;5076271;28;20079;-58
2023/03/06 10:04:29;;;;;;;13.30;7.43;;;;;;;1.85;85.85;96296.94;5080039;28;20044;-58
2023/03/06 10:07:03;;;;;;;17.40;7.55;;;;;;;2.11;86.09;96299.50;5077994;28;20040;-57
2023/03/06 10:09:54;;;;;;;13.35;7.72;;;;;;;1.86;86.31;96298.56;5086433;28;20341;-57
2023/03/06 10:12:23;;;;;;;15.13;6.82;;;;;;;2.00;85.36;96291.22;5076940;28;20044;-57
2023/03/06 10:15:07;;;;;;;12.80;6.43;;;;;;;2.01;85.12;96286.66;5080777;28;20037;-57
2023/03/06 10:17:38;;;;;;;12.80;6.75;;;;;;;2.03;84.86;96296.09;5074398;28;20587;-57
2023/03/06 10:20:36;;;;;;;13.77;7.20;;;;;;;2.05;84.49;96288.69;5075262;28;20048;-57
2023/03/06 10:23:34;;;;;;;17.88;7.20;;;;;;;2.31;83.76;96286.72;5075112;28;20106;-58
2023/03/06 10:26:07;;;;;;;12.65;6.32;;;;;;;2.42;83.33;96290.47;5078188;28;20756;-57
2023/03/06 10:28:36;;;;;;;13.10;7.50;;;;;;;2.35;83.70;96292.41;5075603;28;20040;-58
2023/03/06 10:31:19;;;;;;;12.85;6.60;;;;;;;2.31;84.13;96293.91;5075957;28;20702;-57
2023/03/06 10:34:05;;;;;;;12.45;6.85;;;;;;;2.05;84.32;96288.69;5076808;28;20040;-58
2023/03/06 10:36:32;;;;;;;9.15;5.32;;;;;;;2.26;82.71;96291.94;5070573;28;20078;-57
2023/03/06 10:38:58;;;;;;;13.07;7.10;;;;;;;2.15;82.62;96293.50;5073250;28;20108;-57
2023/03/06 10:41:30;;;;;;;12.85;7.38;;;;;;;2.20;82.99;96285.63;5081397;28;20113;-58
2023/03/06 10:44:18;;;;;;;11.95;6.43;;;;;;;2.42;82.39;96289.66;5076787;28;20036;-57
2023/03/06 10:46:48;;;;;;;13.13;6.25;;;;;;;2.68;81.18;96299.16;5068839;28;20487;-57
2023/03/06 10:49:26;;;;;;;12.05;6.63;;;;;;;2.52;81.58;96284.59;5076181;28;20071;-56
2023/03/06 10:52:00;;;;;;;11.95;6.20;;;;;;;2.45;79.75;96283.84;5070015;28;20036;-57
2023/03/06 10:54:29;;;;;;;12.02;6.47;;;;;;;2.46;79.41;96294.31;5074591;28;20105;-56
2023/03/06 10:56:56;;;;;;;9.32;4.88;;;;;;;2.60;79.25;96291.47;5075626;28;20137;-56
2023/03/06 10:59:27;;;;;;;12.60;7.03;;;;;;;2.54;78.86;96285.16;5073239;28;20081;-58
2023/03/06 11:01:56;;;;;;;11.57;6.07;;;;;;;2.84;78.72;96291.53;5076678;28;20047;-58
2023/03/06 11:04:25;;;;;;;12.60;6.55;;;;;;;2.85;77.96;96287.81;5085846;28;20036;-58
2023/03/06 11:07:11;;;;;;;12.73;6.68;;;;;;;2.76;77.27;96292.66;5084739;28;20046;-58
2023/03/06 11:09:37;;;;;;;12.18;6.45;;;;;;;2.68;76.12;96285.78;5072281;28;20111;-58
2023/03/06 11:12:40;;;;;;;11.48;5.60;;;;;;;2.83;76.80;96288.03;5075369;28;20036;-58
2023/03/06 11:15:13;;;;;;;11.73;5.13;;;;;;;3.03;74.45;96284.25;5010749;28;20046;-58
2023/03/06 11:18:08;;;;;;;12.68;6.15;;;;;;;3.29;75.74;96278.69;5068955;28;20059;-58
2023/03/06 11:20:47;;;;;;;10.27;5.63;;;;;;;3.31;74.75;96271.25;5073737;28;20203;-58
2023/03/06 11:23:41;;;;;;;11.00;5.72;;;;;;;3.45;76.00;96279.84;5076525;28;20044;-58
2023/03/06 11:26:14;;;;;;;11.18;6.30;;;;;;;3.24;75.04;96284.72;5071424;28;20036;-56
2023/03/06 11:29:08;;;;;;;12.82;6.20;;;;;;;3.44;73.16;96280.91;5073609;28;20081;-57
2023/03/06 11:31:41;;;;;;;12.30;5.82;;;;;;;3.71;72.75;96270.50;5070499;28;20052;-56
2023/03/06 11:34:11;;;;;;;11.27;6.15;;;;;;;3.81;72.10;96269.09;5074060;28;20039;-58
2023/03/06 11:36:46;;;;;;;11.75;6.43;;;;;;;3.84;72.96;96258.72;5073288;28;20047;-58
2023/03/06 11:39:49;;;;;;;12.02;5.78;;;;;;;3.82;71.64;96249.28;5070067;28;20066;-58
2023/03/06 11:42:33;;;;;;;11.38;6.40;;;;;;;3.96;72.70;96250.69;5078367;28;20074;-59
2023/03/06 11:45:17;;;;;;;11.60;5.75;;;;;;;4.19;69.43;96254.31;5072251;28;20044;-58